createdAt,value
2023-01-01T00:03:15.126Z,20.70
2023-01-01T00:08:16.890Z,19.30
2023-01-01T00:13:24.339Z,17.20
2023-01-01T00:18:26.086Z,23.00
2023-01-01T00:23:27.811Z,22.80
2023-01-01T00:28:29.620Z,23.20
2023-01-01T00:33:31.385Z,20.40
2023-01-01T00:38:33.734Z,24.20
2023-01-01T00:43:35.840Z,20.90
2023-01-01T00:48:42.184Z,22.10
2023-01-01T00:53:43.935Z,26.50
2023-01-01T00:58:45.728Z,24.90
2023-01-01T01:04:04.655Z,20.30
2023-01-01T01:09:07.599Z,20.30
2023-01-01T01:14:09.387Z,17.80
2023-01-01T01:19:15.623Z,16.10
2023-01-01T01:24:17.905Z,15.90
2023-01-01T01:29:19.631Z,10.40
2023-01-01T01:34:27.414Z,11.20
2023-01-01T01:39:30.045Z,8.00
2023-01-01T01:44:47.693Z,7.90
2023-01-01T01:49:54.605Z,6.60
2023-01-01T01:54:57.530Z,7.40
2023-01-01T02:00:05.233Z,7.50
2023-01-01T02:05:11.734Z,5.60
2023-01-01T02:10:13.840Z,7.60
2023-01-01T02:15:15.748Z,5.90
2023-01-01T02:20:55.240Z,7.40
2023-01-01T02:26:06.338Z,7.70
2023-01-01T02:31:11.610Z,7.40
2023-01-01T02:36:14.137Z,8.60
2023-01-01T02:41:30.120Z,8.80
2023-01-01T02:46:33.949Z,9.40
2023-01-01T02:51:45.283Z,9.40
2023-01-01T02:57:03.259Z,8.90
2023-01-01T03:02:31.269Z,11.50
2023-01-01T03:07:41.174Z,11.40
2023-01-01T03:13:00.620Z,8.70
2023-01-01T03:18:13.263Z,7.40
2023-01-01T03:23:25.104Z,9.60
2023-01-01T03:28:35.142Z,11.10
2023-01-01T03:33:43.956Z,11.90
2023-01-01T03:38:52.393Z,13.10
2023-01-01T03:44:03.296Z,11.10
2023-01-01T03:49:08.005Z,11.40
2023-01-01T03:54:44.999Z,9.30
2023-01-01T04:00:14.876Z,10.50
2023-01-01T04:10:20.777Z,9.00
2023-01-01T04:15:25.988Z,11.70
2023-01-01T04:20:28.623Z,11.40
2023-01-01T04:25:31.037Z,11.10
2023-01-01T04:35:34.651Z,9.90
2023-01-01T04:40:36.401Z,9.00
2023-01-01T04:45:38.135Z,8.90
2023-01-01T04:50:39.909Z,7.50
2023-01-01T04:55:41.654Z,8.20
2023-01-01T05:00:43.777Z,5.70
2023-01-01T05:05:51.233Z,6.70
2023-01-01T05:10:53.340Z,7.00
2023-01-01T05:15:55.463Z,5.00
2023-01-01T05:21:18.452Z,6.70
2023-01-01T05:26:23.500Z,6.50
2023-01-01T05:31:28.921Z,4.90
2023-01-01T05:36:33.550Z,4.30
2023-01-01T05:41:36.932Z,5.20
2023-01-01T05:46:39.589Z,4.90
2023-01-01T05:56:42.306Z,4.70
2023-01-01T06:01:46.076Z,5.80
2023-01-01T06:06:48.136Z,7.70
2023-01-01T06:11:49.845Z,5.50
2023-01-01T06:16:51.719Z,5.10
2023-01-01T06:21:53.529Z,4.50
2023-01-01T06:26:55.307Z,5.20
2023-01-01T06:31:56.983Z,5.30
2023-01-01T06:37:04.645Z,3.90
2023-01-01T06:42:08.527Z,4.50
2023-01-01T06:47:10.295Z,4.70
2023-01-01T06:52:12.093Z,4.70
2023-01-01T06:57:13.982Z,4.90
2023-01-01T07:02:16.015Z,5.50
2023-01-01T07:07:17.861Z,4.30
2023-01-01T07:12:19.622Z,5.80
2023-01-01T07:17:21.391Z,5.90
2023-01-01T07:22:23.169Z,5.90
2023-01-01T07:27:25.301Z,5.70
2023-01-01T07:32:27.175Z,6.80
2023-01-01T07:37:28.872Z,6.60
2023-01-01T07:42:30.604Z,6.40
2023-01-01T07:47:33.282Z,6.30
2023-01-01T07:54:53.944Z,6.40
2023-01-01T07:59:55.796Z,7.00
2023-01-01T08:04:57.540Z,7.90
2023-01-01T08:09:59.409Z,8.60
2023-01-01T08:15:01.320Z,6.50
2023-01-01T08:20:04.032Z,5.00
2023-01-01T08:25:05.985Z,8.50
2023-01-01T08:30:08.943Z,5.90
2023-01-01T08:35:10.773Z,8.10
2023-01-01T08:40:13.506Z,6.00
2023-01-01T08:45:16.730Z,7.10
2023-01-01T08:50:18.539Z,8.00
2023-01-01T08:55:20.343Z,6.20
2023-01-01T09:00:22.179Z,8.10
2023-01-01T09:05:23.975Z,6.30
2023-01-01T09:10:25.860Z,5.70
2023-01-01T09:15:27.750Z,8.10
2023-01-01T09:20:29.645Z,4.60
2023-01-01T09:25:34.097Z,5.00
2023-01-01T09:30:36.854Z,7.50
2023-01-01T09:35:38.966Z,11.70
2023-01-01T09:41:01.699Z,6.70
2023-01-01T09:46:08.999Z,6.90
2023-01-01T09:51:17.038Z,5.20
2023-01-01T09:56:28.193Z,4.70
2023-01-01T10:01:36.070Z,5.20
2023-01-01T10:06:49.472Z,4.20
2023-01-01T10:12:03.509Z,3.40
2023-01-01T10:17:32.897Z,7.00
2023-01-01T10:22:40.581Z,6.80
2023-01-01T10:28:14.094Z,6.10
2023-01-01T10:33:15.875Z,4.80
2023-01-01T10:38:26.002Z,4.80
2023-01-01T10:43:27.799Z,5.50
2023-01-01T10:48:31.814Z,5.90
2023-01-01T10:53:50.866Z,5.60
2023-01-01T10:58:55.123Z,4.50
2023-01-01T11:04:13.795Z,4.60
2023-01-01T11:09:27.593Z,5.40
2023-01-01T11:14:36.738Z,5.20
2023-01-01T11:19:45.623Z,5.50
2023-01-01T11:25:02.913Z,5.90
2023-01-01T11:30:23.267Z,5.80
2023-01-01T11:35:27.877Z,6.30
2023-01-01T11:40:37.262Z,6.40
2023-01-01T11:45:42.245Z,4.90
2023-01-01T11:51:06.129Z,7.10
2023-01-01T11:56:14.768Z,6.00
2023-01-01T12:01:25.741Z,3.60
2023-01-01T12:06:47.347Z,4.30
2023-01-01T12:12:29.290Z,4.40
2023-01-01T12:17:37.593Z,3.50
2023-01-01T12:22:40.967Z,4.50
2023-01-01T12:28:28.267Z,6.10
2023-01-01T12:34:08.523Z,4.80
2023-01-01T12:39:58.411Z,4.30
2023-01-01T12:50:57.275Z,3.40
2023-01-01T12:56:10.825Z,4.70
2023-01-01T13:01:32.852Z,3.60
2023-01-01T13:06:50.167Z,3.10
2023-01-01T13:12:01.796Z,4.90
2023-01-01T13:17:03.660Z,3.40
2023-01-01T13:22:27.561Z,3.80
2023-01-01T13:27:59.416Z,4.50
2023-01-01T13:33:21.560Z,3.40
2023-01-01T13:38:51.333Z,5.30
2023-01-01T13:44:23.238Z,7.00
2023-01-01T13:50:03.115Z,4.30
2023-01-01T13:55:26.693Z,4.90
2023-01-01T14:00:52.785Z,6.20
2023-01-01T14:06:03.370Z,5.50
2023-01-01T14:11:21.531Z,5.10
2023-01-01T14:16:26.998Z,6.90
2023-01-01T14:21:34.198Z,9.00
2023-01-01T14:26:39.091Z,6.00
2023-01-01T14:31:44.494Z,8.80
2023-01-01T14:36:54.914Z,9.40
2023-01-01T14:42:02.435Z,7.90
2023-01-01T14:47:11.273Z,8.90
2023-01-01T14:52:24.462Z,10.60
2023-01-01T14:57:35.749Z,11.60
2023-01-01T15:02:38.448Z,8.90
2023-01-01T15:07:41.111Z,8.90
2023-01-01T15:12:43.081Z,9.40
2023-01-01T15:17:47.185Z,9.70
2023-01-01T15:22:50.866Z,9.60
2023-01-01T15:27:55.365Z,8.30
2023-01-01T15:33:07.099Z,10.40
2023-01-01T15:38:26.598Z,10.80
2023-01-01T15:43:30.464Z,10.60
2023-01-01T15:48:37.753Z,10.60
2023-01-01T15:53:49.196Z,10.60
2023-01-01T15:59:05.306Z,10.90
2023-01-01T16:04:14.630Z,13.70
2023-01-01T16:09:17.645Z,9.60
2023-01-01T16:14:19.724Z,9.30
2023-01-01T16:19:22.385Z,11.80
2023-01-01T16:24:24.671Z,12.90
2023-01-01T16:29:26.631Z,10.40
2023-01-01T16:34:28.707Z,11.30
2023-01-01T16:39:30.476Z,12.70
2023-01-01T16:44:32.234Z,11.30
2023-01-01T16:49:34.003Z,9.50
2023-01-01T16:54:36.288Z,9.30
2023-01-01T16:59:38.225Z,11.00
2023-01-01T17:04:39.954Z,13.70
2023-01-01T17:09:42.612Z,10.90
2023-01-01T17:14:44.673Z,11.70
2023-01-01T17:19:47.073Z,13.10
2023-01-01T17:24:48.836Z,11.40
2023-01-01T17:29:50.634Z,13.20
2023-01-01T17:34:52.879Z,10.60
2023-01-01T17:39:56.804Z,12.40
2023-01-01T17:44:58.819Z,15.70
2023-01-01T17:50:01.336Z,14.40
2023-01-01T17:55:03.585Z,13.40
2023-01-01T18:00:10.192Z,15.40
2023-01-01T18:05:14.319Z,13.40
2023-01-01T18:10:16.125Z,12.40
2023-01-01T18:15:20.032Z,12.60
2023-01-01T18:20:21.983Z,15.00
2023-01-01T18:25:23.919Z,15.60
2023-01-01T18:30:25.825Z,13.00
2023-01-01T18:35:27.667Z,14.30
2023-01-01T18:40:33.691Z,14.70
2023-01-01T18:45:35.629Z,14.40
2023-01-01T18:50:37.585Z,13.90
2023-01-01T18:55:39.546Z,14.20
2023-01-01T19:00:41.565Z,13.00
2023-01-01T19:05:45.027Z,12.10
2023-01-01T19:11:16.746Z,12.30
2023-01-01T19:16:26.002Z,11.50
2023-01-01T19:21:27.979Z,11.50
2023-01-01T19:26:36.051Z,11.60
2023-01-01T19:31:37.983Z,14.90
2023-01-01T19:36:39.834Z,12.80
2023-01-01T19:41:42.344Z,11.80
2023-01-01T19:46:44.345Z,15.30
2023-01-01T19:51:46.346Z,15.30
2023-01-01T19:56:49.645Z,15.70
2023-01-01T20:02:17.707Z,11.90
2023-01-01T20:07:13.654Z,16.20
2023-01-01T20:12:15.584Z,13.20
2023-01-01T20:17:18.329Z,16.10
2023-01-01T20:22:22.167Z,11.70
2023-01-01T20:27:27.061Z,11.20
2023-01-01T20:32:29.020Z,11.90
2023-01-01T20:37:36.639Z,12.50
2023-01-01T20:42:39.880Z,14.70
2023-01-01T20:47:41.573Z,13.70
2023-01-01T20:52:43.327Z,12.60
2023-01-01T20:57:45.230Z,13.90
2023-01-01T21:02:48.412Z,12.60
2023-01-01T21:07:50.805Z,17.30
2023-01-01T21:12:52.566Z,13.10
2023-01-01T21:17:54.842Z,12.40
2023-01-01T21:23:00.427Z,14.50
2023-01-01T21:28:02.327Z,11.90
2023-01-01T21:33:14.837Z,14.00
2023-01-01T21:38:21.500Z,13.80
2023-01-01T21:43:24.021Z,14.20
2023-01-01T21:48:33.774Z,13.70
2023-01-01T21:53:36.418Z,12.50
2023-01-01T21:59:02.070Z,12.80
2023-01-01T22:04:10.055Z,12.90
2023-01-01T22:09:24.769Z,9.50
2023-01-01T22:14:37.817Z,14.10
2023-01-01T22:19:39.586Z,10.30
2023-01-01T22:24:44.874Z,10.20
2023-01-01T22:29:46.990Z,23.20
2023-01-01T22:34:50.212Z,23.10
2023-01-01T22:39:52.032Z,22.20
2023-01-01T22:44:58.614Z,26.20
2023-01-01T22:50:02.727Z,27.10
2023-01-01T22:55:04.806Z,25.70
2023-01-01T23:00:07.841Z,29.10
2023-01-01T23:05:10.257Z,22.00
2023-01-01T23:10:14.062Z,26.90
2023-01-01T23:15:34.602Z,26.90
2023-01-01T23:20:36.501Z,24.30
2023-01-01T23:25:38.279Z,29.60
2023-01-01T23:30:40.661Z,30.10
2023-01-01T23:35:42.708Z,28.20
2023-01-01T23:40:44.412Z,19.60
2023-01-01T23:45:47.435Z,12.90
2023-01-01T23:50:49.548Z,11.80
2023-01-01T23:55:51.329Z,12.90
